This is the latest recevied weather packets stored in our database for station/object 1NW106. If no packets are shown the sender has not sent any weather packets the latest 10 day(s).
| Time | Temp. | Humidity | Pressure | Rain* | Wind** | Luminosity | Snow |
|---|---|---|---|---|---|---|---|
| 1787899170 | 29.44° C | 79% | 1008.1 hPa | 14.73 mm | - | - | - |
| 1787898570 | 29.44° C | 78% | 1008.4 hPa | 14.73 mm | - | - | - |
| 1787897970 | 29.44° C | 79% | 1008.4 hPa | 14.73 mm | - | - | - |
| 1787897370 | 28.89° C | 80% | 1008.5 hPa | 14.73 mm | - | - | - |
| 1787896770 | 28.89° C | 80% | 1008.8 hPa | 14.73 mm | - | - | - |
| 1787896170 | 28.89° C | 79% | 1009.2 hPa | 14.73 mm | - | - | - |
| 1787895571 | 28.89° C | 80% | 1009.4 hPa | 14.73 mm | - | - | - |
| 1787894971 | 28.33° C | 82% | 1009.4 hPa | 14.73 mm | - | - | - |
| 1787894370 | 28.33° C | 80% | 1009.6 hPa | 14.73 mm | - | - | - |
| 1787893770 | 27.78° C | 79% | 1009.8 hPa | 14.73 mm | - | - | - |
| 1787893170 | 28.89° C | 77% | 1010.1 hPa | 14.73 mm | - | - | - |
| 1787892570 | 29.44° C | 77% | 1010.1 hPa | 14.73 mm | - | - | - |
| 1787891970 | 28.33° C | 80% | 1010 hPa | 14.73 mm | - | - | - |
| 1787891370 | 27.78° C | 83% | 1009.9 hPa | 14.73 mm | - | - | - |
| 1787890773 | 27.22° C | 83% | 1010.1 hPa | 14.73 mm | - | - | - |
| 1787890170 | 26.67° C | 86% | 1009.9 hPa | 14.73 mm | - | - | - |
| 1787889570 | 26.67° C | 89% | 1009.7 hPa | 14.73 mm | - | - | - |
| 1787888971 | 26.67° C | 89% | 1009.8 hPa | 14.73 mm | - | - | - |
| 1787888370 | 26.67° C | 89% | 1009.9 hPa | 14.73 mm | - | - | - |
| 1787887771 | 26.67° C | 91% | 1009.7 hPa | 14.73 mm | - | - | - |
| 1787887170 | 26.67° C | 92% | 1009.5 hPa | 14.73 mm | - | - | - |
| 1787886570 | 26.11° C | 93% | 1009.5 hPa | 14.73 mm | - | - | - |
| 1787885970 | 26.11° C | 99% | 1008.5 hPa | 14.73 mm | - | - | - |
| 1787885370 | 26.11° C | 99% | 1008.4 hPa | 14.73 mm | - | - | - |
| 1787884770 | 25.56° C | 98% | 1008.5 hPa | 14.73 mm | - | - | - |
* Rain latest hour (hover to see other rain measurements)
** Current wind speed in m/s (hover to see current wind gust speed)